Latest Weather Observations for Argyle

IDW60801

Issued at 9:43 pm WST Monday 27 January 2020 (issued every 10 minutes, with the page automatically refreshed every 10 minutes)

About weather observations | Map of weather stations | Latest weather observations for WA | Other Formats
Station Details ID: 002064 Name: ARGYLE AERODROME Lat: -16.64 Lon: 128.45 Height: 164.0 m
Data from the previous 72 hours. | See also: Recent months at Argyle
Date/Time
WST
Temp
°C
App
Temp
°C
Dew
Point
°C
Rel
Hum
%
Delta-T
°C
Wind Press
QNH
hPa
Press
MSL
hPa
Rain since
9am
mm
Dir  Spd
km/h
Gust
km/h
Spd
kts
Gust
kts
27/09:30pm 33.7 35.3 20.8 46 8.7 NW 13 17 7 9 1007.7 1006.4 0.0
27/09:00pm 32.6 35.1 21.1 50 7.8 NW 9 11 5 6 1007.6 1006.3 0.0
27/08:30pm 33.4 35.3 20.5 46 8.7 NW 11 11 6 6 1007.1 1005.8 0.0
27/08:00pm 34.0 36.2 20.4 45 9.2 NW 9 13 5 7 1006.7 1005.4 0.0
27/07:30pm 33.8 36.2 21.6 49 8.3 WNW 11 13 6 7 1006.5 1005.1 0.0
27/07:00pm 34.9 36.9 20.8 43 9.6 NNW 11 13 6 7 1006.1 1004.7 0.0
27/06:30pm 34.9 36.6 20.1 42 9.9 N 11 13 6 7 1005.8 1004.4 0.0
27/06:00pm 36.7 37.7 17.8 32 12.4 NW 9 11 5 6 1005.3 1004.0 0.0
27/05:30pm 38.0 39.9 15.7 26 14.2 CALM 0 0 0 0 1005.3 1004.0 0.0
27/05:00pm 38.5 40.3 15.6 26 14.7 CALM 0 6 0 3 1005.0 1003.7 0.0
27/04:30pm 38.8 39.1 14.6 24 15.3 W 6 9 3 5 1005.2 1003.9 0.0
27/04:00pm 39.3 40.0 16.2 25 15.0 W 7 11 4 6 1005.3 1004.0 0.0
27/03:30pm 39.6 40.9 15.2 23 15.6 SW 2 9 1 5 1005.7 1004.3 0.0
27/03:00pm 38.5 38.0 15.0 25 14.9 SSW 11 15 6 8 1006.0 1004.6 0.0
27/02:30pm 38.1 38.8 18.0 30 13.2 ENE 11 22 6 12 1006.3 1004.9 0.0
27/02:00pm 39.4 39.4 16.3 25 15.0 SSW 11 19 6 10 1006.4 1005.0 0.0
27/01:30pm 39.4 39.7 14.4 22 15.8 NNE 6 13 3 7 1006.5 1005.1 0.0
27/01:00pm 38.9 39.8 17.6 28 14.0 S 9 20 5 11 1007.0 1005.7 0.0
27/12:30pm 39.0 39.5 18.3 30 13.7 WSW 13 22 7 12 1007.4 1006.1 0.0
27/12:00pm 38.1 39.5 19.5 33 12.5 SW 11 19 6 10 1007.7 1006.4 0.0
27/11:30am 37.5 39.5 19.9 35 11.9 NW 9 17 5 9 1008.2 1006.9 0.0
27/11:00am 36.5 39.6 21.1 40 10.5 SSE 6 11 3 6 1008.6 1007.3 0.0
27/10:30am 35.6 38.7 21.5 44 9.7 NW 7 13 4 7 1009.2 1007.9 0.0
27/10:00am 35.1 37.8 21.4 45 9.4 NW 9 17 5 9 1009.4 1008.1 0.0
27/09:30am 34.7 38.5 22.4 48 8.5 N 6 9 3 5 1009.5 1008.2 0.0
27/09:00am 33.5 37.1 22.0 51 7.9 SW 6 11 3 6 1009.7 1008.4 0.0
27/08:30am 32.9 36.5 22.0 52 7.5 WNW 6 11 3 6 1009.8 1008.5 0.0
27/08:00am 32.4 35.5 22.2 55 7.0 NNW 9 15 5 8 1009.7 1008.4 0.0
27/07:30am 31.9 34.6 22.9 59 6.2 N 13 17 7 9 1009.5 1008.2 0.0
27/07:00am 30.5 33.8 23.9 68 4.6 NW 13 17 7 9 1009.1 1007.8 0.0
27/06:30am 29.1 33.0 24.9 78 3.0 WNW 13 15 7 8 1009.0 1007.7 0.0
27/06:00am 28.2 32.8 24.2 79 2.8 WSW 7 7 4 4 1009.2 1007.9 0.0
27/05:30am 28.1 33.0 24.3 80 2.6 WSW 6 7 3 4 1008.9 1007.6 0.0
27/05:00am 28.0 33.8 24.0 79 2.8 CALM 0 0 0 0 1008.4 1007.1 0.0
27/04:30am 28.3 32.8 23.7 76 3.2 W 6 7 3 4 1008.3 1007.0 0.0
27/04:00am 28.8 33.4 23.2 71 3.9 NE 4 7 2 4 1008.0 1006.7 0.0
27/03:30am 28.4 33.7 23.1 73 3.6 CALM 0 0 0 0 1007.8 1006.5 0.0
27/03:00am 29.0 34.4 23.2 71 4.0 CALM 0 0 0 0 1007.8 1006.5 0.0
27/02:30am 29.1 32.8 22.3 66 4.6 NNW 6 9 3 5 1007.6 1006.3 0.0
27/02:00am 29.4 34.6 22.9 68 4.5 CALM 0 0 0 0 1007.6 1006.3 0.0
27/01:30am 29.0 33.2 23.2 71 4.0 SSE 6 7 3 4 1007.7 1006.4 0.0
27/01:00am 29.1 34.0 23.1 70 4.1 SSE 2 7 1 4 1007.7 1006.4 0.0
27/12:30am 28.9 32.6 23.3 72 3.9 SSW 9 9 5 5 1008.2 1006.9 0.0
27/12:00am 28.8 32.4 23.0 71 4.0 SSW 9 11 5 6 1008.6 1007.3 0.0
 
Date/Time
WST
Temp
°C
App
Temp
°C
Dew
Point
°C
Rel
Hum
%
Delta-T
°C
Wind Press
QNH
hPa
Press
MSL
hPa
Rain since
9am
mm
Dir  Spd
km/h
Gust
km/h
Spd
kts
Gust
kts
26/11:30pm 28.5 32.4 23.0 72 3.8 SW 7 9 4 5 1009.0 1007.7 0.0
26/11:00pm 28.9 32.6 22.6 69 4.3 SW 7 9 4 5 1009.1 1007.8 0.0
26/10:30pm 29.2 33.8 22.4 66 4.6 NNW 2 9 1 5 1009.4 1008.1 0.0
26/10:00pm 29.3 33.4 21.5 63 5.3 N 2 6 1 3 1009.8 1008.5 0.0
26/09:30pm 29.4 32.2 21.6 63 5.3 N 9 13 5 7 1009.6 1008.3 0.0
26/09:00pm 29.9 32.6 21.3 60 5.8 N 9 15 5 8 1009.1 1007.8 0.0
26/08:30pm 31.3 33.5 21.2 55 6.8 NE 11 24 6 13 1009.0 1007.7 0.0
26/08:00pm 31.7 33.1 20.3 50 7.6 N 13 15 7 8 1008.8 1007.5 0.0
26/07:30pm 33.1 34.3 19.9 45 8.8 SSE 13 17 7 9 1008.1 1006.8 0.0
26/07:00pm 33.2 34.8 20.0 45 8.8 SSE 11 15 6 8 1007.9 1006.6 0.0
26/06:30pm 33.5 35.4 20.6 46 8.7 W 11 15 6 8 1007.4 1006.1 0.0
26/06:00pm 34.5 36.7 21.2 46 9.1 W 11 15 6 8 1007.3 1006.0 0.0
26/05:30pm 35.7 37.5 21.2 43 9.9 WNW 13 24 7 13 1007.0 1005.7 0.0
26/05:00pm 36.3 39.2 21.7 42 10.1 NW 9 13 5 7 1006.3 1004.9 0.0
26/04:30pm 35.8 38.4 20.1 40 10.6 N 6 9 3 5 1006.2 1004.8 0.0
26/04:00pm 37.6 40.0 20.8 37 11.5 WSW 9 11 5 6 1006.0 1004.6 0.0
26/03:30pm 37.1 38.9 19.5 35 11.8 WSW 9 15 5 8 1006.0 1004.6 0.0
26/03:00pm 37.0 38.2 19.0 34 12.0 SW 11 19 6 10 1006.1 1004.7 0.0
26/02:30pm 36.2 38.2 20.0 38 10.9 SE 9 15 5 8 1006.3 1004.9 0.0
26/02:00pm 36.2 38.6 20.8 40 10.5 SSW 9 15 5 8 1006.8 1005.5 0.0
26/01:30pm 36.2 39.4 21.2 41 10.2 S 6 13 3 7 1007.3 1006.0 0.0
26/01:00pm 35.7 38.5 21.5 43 9.7 ESE 9 17 5 9 1007.8 1006.5 0.0
26/12:30pm 35.3 38.6 21.9 45 9.2 S 7 9 4 5 1008.3 1007.0 0.0
26/12:00pm 34.2 37.4 21.3 47 8.8 N 6 13 3 7 1008.6 1007.3 0.0
26/11:30am 34.0 37.6 22.4 50 8.0 ENE 7 13 4 7 1009.1 1007.8 0.0
26/11:00am 33.4 36.5 21.5 49 8.1 SSE 7 13 4 7 1009.5 1008.2 0.0
26/10:30am 32.4 34.5 21.0 51 7.7 ESE 11 17 6 9 1009.9 1008.6 0.0
26/10:00am 31.7 35.5 22.7 59 6.2 NW 7 13 4 7 1009.9 1008.6 0.0
26/09:30am 30.9 34.1 21.7 58 6.2 NW 7 11 4 6 1010.1 1008.8 0.0
26/09:00am 30.7 35.4 22.6 62 5.6 N 2 9 1 5 1010.2 1008.9 2.8
26/08:30am 29.9 33.5 22.1 63 5.3 N 6 11 3 6 1010.2 1008.9 2.8
26/08:00am 29.8 33.1 21.5 61 5.6 W 6 9 3 5 1010.0 1008.7 2.8
26/07:30am 29.1 32.7 22.3 66 4.6 N 7 11 4 6 1009.7 1008.4 2.8
26/07:00am 27.8 31.8 22.7 74 3.5 N 6 9 3 5 1009.7 1008.4 2.8
26/06:30am 27.2 31.3 23.0 78 2.9 SSW 6 7 3 4 1009.6 1008.3 2.8
26/06:00am 26.9 32.4 23.4 81 2.4 CALM 0 0 0 0 1009.4 1008.1 2.8
26/05:30am 26.2 30.4 23.5 85 1.9 N 7 9 4 5 1008.8 1007.5 2.8
26/05:00am 26.3 30.5 23.4 84 2.0 N 7 9 4 5 1008.6 1007.3 2.8
26/04:30am 26.9 30.8 22.5 77 3.0 W 6 7 3 4 1008.6 1007.3 2.8
26/04:00am 27.3 31.1 22.7 76 3.1 SSW 7 11 4 6 1008.6 1007.3 2.8
26/03:30am 26.4 31.1 22.7 80 2.5 S 2 9 1 5 1008.6 1007.3 2.8
26/03:00am 26.8 31.5 22.6 78 2.9 NE 2 6 1 3 1008.6 1007.3 2.8
26/02:30am 26.3 30.4 23.2 83 2.1 NNE 7 11 4 6 1008.8 1007.5 2.8
26/02:00am 26.5 32.2 23.8 85 1.9 CALM 0 0 0 0 1008.7 1007.4 2.8
26/01:30am 26.8 31.0 23.5 82 2.3 E 7 11 4 6 1009.1 1007.8 2.8
26/01:00am 26.5 30.4 23.6 84 2.0 E 9 13 5 7 1009.4 1008.1 2.8
26/12:30am 26.4 32.2 23.9 86 1.7 CALM 0 0 0 0 1009.0 1007.7 2.8
26/12:00am 26.4 30.9 23.9 86 1.7 NE 7 9 4 5 1009.2 1007.9 2.8
 
Date/Time
WST
Temp
°C
App
Temp
°C
Dew
Point
°C
Rel
Hum
%
Delta-T
°C
Wind Press
QNH
hPa
Press
MSL
hPa
Rain since
9am
mm
Dir  Spd
km/h
Gust
km/h
Spd
kts
Gust
kts
25/11:30pm 26.2 31.1 23.7 86 1.7 N 4 7 2 4 1008.9 1007.6 2.8
25/11:00pm 26.0 30.5 23.9 88 1.5 NNE 7 9 4 5 1008.9 1007.6 2.8
25/10:30pm 26.1 30.6 23.6 86 1.7 N 6 9 3 5 1009.0 1007.7 2.8
25/10:00pm 25.9 28.9 23.4 86 1.7 WNW 13 19 7 10 1008.9 1007.6 2.8
25/09:30pm 25.8 28.7 23.1 85 1.8 SSW 13 17 7 9 1009.3 1008.0 2.8
25/09:00pm 25.3 27.1 23.5 90 1.2 WSW 20 28 11 15 1008.9 1007.6 2.8
25/08:30pm 25.4 29.6 23.1 87 1.6 NW 6 9 3 5 1010.3 1009.0 2.2
25/08:00pm 25.1 28.0 23.2 89 1.3 SE 13 20 7 11 1010.4 1009.1 1.6
25/07:47pm 25.9 29.5 24.3 91 1.1 ESE 13 22 7 12 1010.4 1009.1 1.6
25/07:35pm 25.6 27.5 23.8 90 1.2 ESE 20 30 11 16 1010.9 1009.6 1.4
25/07:30pm 25.7 27.1 23.6 88 1.4 ESE 22 30 12 16 1010.9 1009.6 0.8
25/07:00pm 29.4 32.4 22.6 67 4.7 ENE 11 17 6 9 1010.0 1008.7 0.0
25/06:30pm 29.7 33.9 23.2 68 4.5 N 6 7 3 4 1008.9 1007.6 0.0
25/06:00pm 29.9 33.2 21.8 62 5.5 N 7 9 4 5 1008.2 1006.9 0.0
25/05:30pm 30.4 32.3 20.6 55 6.5 N 11 17 6 9 1007.2 1005.9 0.0
25/05:00pm 30.8 33.1 21.3 57 6.4 N 11 13 6 7 1006.7 1005.4 0.0
25/04:30pm 30.8 33.4 21.9 59 6.1 N 11 13 6 7 1006.2 1004.8 0.0
25/04:00pm 30.7 33.5 21.5 58 6.2 N 9 13 5 7 1005.7 1004.3 0.0
25/03:30pm 30.2 31.8 20.7 56 6.3 N 13 20 7 11 1005.9 1004.5 0.0
25/03:00pm 30.8 32.7 21.3 57 6.4 NNW 13 19 7 10 1007.0 1005.7 0.0
25/02:30pm 30.6 32.0 21.1 57 6.4 NE 15 20 8 11 1007.0 1005.7 0.0
25/02:00pm 32.2 32.8 21.4 53 7.3 NE 20 30 11 16 1006.7 1005.4 0.0
25/01:30pm 32.7 33.7 22.2 54 7.2 NE 20 33 11 18 1006.8 1005.5 0.0
25/01:00pm 35.7 38.8 21.5 43 9.7 ENE 7 11 4 6 1006.6 1005.3 0.0
25/12:30pm 36.2 39.5 20.8 40 10.5 E 4 7 2 4 1007.1 1005.8 0.0
25/12:00pm 37.4 40.8 22.7 42 10.3 WSW 9 15 5 8 1007.2 1005.9 0.0
25/11:30am 35.7 38.7 21.2 43 9.9 NNE 7 11 4 6 1007.8 1006.5 0.0
25/11:00am 35.7 39.4 23.3 48 8.7 WSW 9 13 5 7 1008.7 1007.4 0.0
25/10:30am 34.9 38.8 23.6 52 7.9 WNW 9 17 5 9 1009.1 1007.8 0.0
25/10:00am 34.2 38.8 24.7 57 6.8 WNW 9 17 5 9 1009.4 1008.1 0.0
25/09:30am 33.3 37.6 23.6 56 6.8 NW 7 13 4 7 1009.8 1008.5 0.0
25/09:00am 32.7 38.3 24.2 61 6.0 WSW 2 7 1 4 1010.1 1008.8 -
25/08:30am 31.9 36.4 23.7 62 5.7 NNW 6 9 3 5 1010.1 1008.8 -
25/08:00am 31.2 36.2 23.8 64 5.2 N 4 9 2 5 1010.0 1008.7 -
25/07:30am 30.6 35.4 23.5 66 4.9 SW 4 7 2 4 1009.9 1008.6 -
25/07:00am 30.4 36.4 24.3 70 4.3 CALM 0 0 0 0 1009.7 1008.4 -
25/06:30am 29.4 35.8 24.9 77 3.2 CALM 0 0 0 0 1009.3 1008.0 -
25/06:00am 28.7 35.3 25.3 82 2.4 CALM 0 0 0 0 1009.0 1007.7 -
25/05:30am 27.9 34.5 25.3 86 1.8 CALM 0 0 0 0 1008.6 1007.3 -
25/05:00am 27.8 33.7 25.4 87 1.7 SW 4 6 2 3 1008.1 1006.8 -
25/04:30am 27.8 33.7 25.4 87 1.7 SW 4 6 2 3 1007.9 1006.6 -
25/04:00am 27.9 33.9 25.5 87 1.7 SW 4 7 2 4 1007.8 1006.5 -
25/03:30am 28.0 33.6 25.4 86 1.8 SW 6 7 3 4 1007.7 1006.4 -
25/03:00am 28.6 35.2 25.8 85 2.0 SW 2 7 1 4 1007.7 1006.4 -
25/02:30am 28.9 35.3 24.9 79 2.8 CALM 0 0 0 0 1007.7 1006.4 -
25/02:00am 29.0 35.5 25.0 79 2.8 CALM 0 0 0 0 1007.7 1006.4 -
25/01:30am 29.1 34.4 24.9 78 3.0 SW 6 7 3 4 1007.7 1006.4 -
25/01:00am 29.2 34.5 25.0 78 3.0 SW 6 6 3 3 1008.0 1006.7 -
25/12:30am 29.1 33.4 24.9 78 3.0 WNW 11 13 6 7 1008.0 1006.7 -
25/12:00am 29.5 34.2 25.0 77 3.2 NNW 9 11 5 6 1008.3 1007.0 -
 
Date/Time
WST
Temp
°C
App
Temp
°C
Dew
Point
°C
Rel
Hum
%
Delta-T
°C
Wind Press
QNH
hPa
Press
MSL
hPa
Rain since
9am
mm
Dir  Spd
km/h
Gust
km/h
Spd
kts
Gust
kts
24/11:30pm 29.6 34.3 24.9 76 3.3 NNW 9 11 5 6 1008.4 1007.1 -
24/11:00pm 29.7 35.0 25.2 77 3.2 N 7 11 4 6 1008.7 1007.4 -
24/10:30pm 29.5 34.6 25.0 77 3.2 N 7 9 4 5 1008.9 1007.6 -
24/10:00pm 30.1 34.8 24.9 73 3.7 N 9 11 5 6 1008.6 1007.3 -

Other formats

Comma delimited format used in spreadsheet applications
http://www.bom.gov.au/fwo/IDW60801/IDW60801.94217.axf

JavaScript Object Notation format (JSON) in row-major order
http://www.bom.gov.au/fwo/IDW60801/IDW60801.94217.json

Data quality

Most of these data are generated automatically and are frequently updated. Quality checks on data are not normally performed. It is possible for incorrect values to appear. Refer to information at About Latest Weather Observations and please check the disclaimer before using these data.